createdAt,value
2018-05-18T00:00:07.718Z,55.80
2018-05-18T00:02:35.344Z,53.30
2018-05-18T00:05:02.859Z,47.90
2018-05-18T00:07:30.401Z,53.53
2018-05-18T00:09:57.902Z,56.93
2018-05-18T00:12:25.441Z,55.03
2018-05-18T00:14:52.980Z,50.00
2018-05-18T00:17:20.511Z,53.20
2018-05-18T00:19:48.790Z,51.90
2018-05-18T00:22:16.350Z,48.10
2018-05-18T00:24:43.844Z,47.00
2018-05-18T00:27:11.356Z,48.50
2018-05-18T00:29:38.926Z,51.50
2018-05-18T00:32:06.444Z,51.53
2018-05-18T00:34:34.064Z,48.70
2018-05-18T00:37:01.599Z,46.83
2018-05-18T00:39:29.100Z,54.03
2018-05-18T00:41:56.604Z,57.77
2018-05-18T00:44:24.958Z,51.57
2018-05-18T00:46:52.482Z,46.73
2018-05-18T00:49:19.980Z,58.57
2018-05-18T00:51:48.255Z,52.23
2018-05-18T00:54:16.543Z,51.90
2018-05-18T00:56:44.099Z,51.50
2018-05-18T00:59:11.648Z,49.80
2018-05-18T01:01:39.916Z,49.43
2018-05-18T01:04:08.207Z,48.60
2018-05-18T01:06:35.712Z,51.13
2018-05-18T01:09:03.207Z,53.23
2018-05-18T01:11:31.515Z,52.83
2018-05-18T01:13:59.036Z,49.00
2018-05-18T01:16:27.308Z,53.73
2018-05-18T01:18:55.821Z,50.47
2018-05-18T01:21:23.367Z,52.07
2018-05-18T01:23:50.957Z,53.33
2018-05-18T01:26:18.450Z,49.60
2018-05-18T01:28:46.029Z,47.70
2018-05-18T01:31:14.434Z,51.40
2018-05-18T01:33:41.936Z,61.07
2018-05-18T01:36:09.444Z,57.10
2018-05-18T01:38:36.950Z,53.57
2018-05-18T01:41:04.565Z,49.73
2018-05-18T01:43:32.090Z,55.73
2018-05-18T01:46:00.368Z,57.00
2018-05-18T01:48:28.634Z,56.40
2018-05-18T01:50:57.335Z,60.20
2018-05-18T01:53:25.682Z,51.93
2018-05-18T01:55:53.186Z,54.20
2018-05-18T01:58:20.677Z,53.33
2018-05-18T02:00:48.278Z,59.40
2018-05-18T02:03:16.666Z,57.10
2018-05-18T02:05:44.172Z,55.07
2018-05-18T02:08:11.727Z,60.03
2018-05-18T02:10:39.236Z,54.97
2018-05-18T02:13:06.752Z,58.17
2018-05-18T02:15:35.231Z,63.70
2018-05-18T02:18:02.829Z,57.87
2018-05-18T02:20:30.330Z,62.43
2018-05-18T02:22:57.817Z,58.57
2018-05-18T02:25:25.330Z,61.97
2018-05-18T02:27:52.839Z,65.77
2018-05-18T02:30:21.246Z,59.50
2018-05-18T02:32:48.754Z,66.77
2018-05-18T02:35:16.277Z,63.87
2018-05-18T02:37:43.919Z,60.83
2018-05-18T02:40:11.410Z,61.03
2018-05-18T02:42:38.912Z,67.53
2018-05-18T02:45:07.342Z,63.10
2018-05-18T02:47:34.864Z,62.87
2018-05-18T02:50:02.373Z,65.23
2018-05-18T02:52:29.896Z,59.40
2018-05-18T02:54:57.391Z,62.87
2018-05-18T02:57:24.893Z,61.37
2018-05-18T02:59:52.441Z,64.73
2018-05-18T03:02:19.989Z,56.80
2018-05-18T03:04:48.250Z,65.50
2018-05-18T03:07:16.524Z,60.37
2018-05-18T03:09:44.811Z,74.07
2018-05-18T03:12:13.065Z,65.63
2018-05-18T03:14:40.565Z,65.83
2018-05-18T03:17:08.071Z,68.40
2018-05-18T03:19:35.681Z,61.40
2018-05-18T03:22:03.196Z,58.23
2018-05-18T03:24:31.472Z,63.07
2018-05-18T03:26:59.753Z,57.00
2018-05-18T03:29:28.035Z,55.60
2018-05-18T03:31:56.428Z,59.80
2018-05-18T03:34:23.934Z,56.47
2018-05-18T03:36:51.434Z,58.50
2018-05-18T03:39:19.699Z,57.07
2018-05-18T03:41:48.077Z,59.17
2018-05-18T03:44:16.353Z,59.30
2018-05-18T03:46:44.759Z,60.03
2018-05-18T03:49:12.291Z,51.50
2018-05-18T03:51:40.545Z,58.20
2018-05-18T03:54:08.051Z,64.53
2018-05-18T03:56:35.552Z,57.63
2018-05-18T03:59:03.075Z,56.50
2018-05-18T04:01:42.584Z,52.27
2018-05-18T04:04:21.909Z,58.93
2018-05-18T04:07:02.085Z,57.53
2018-05-18T04:09:29.619Z,51.60
2018-05-18T04:11:57.131Z,51.73
2018-05-18T04:14:24.727Z,56.73
2018-05-18T04:16:53.029Z,56.47
2018-05-18T04:19:20.518Z,60.60
2018-05-18T04:21:48.037Z,54.53
2018-05-18T04:24:15.540Z,53.33
2018-05-18T04:26:43.038Z,59.20
2018-05-18T04:29:10.526Z,59.17
2018-05-18T04:31:38.042Z,60.03
2018-05-18T04:34:06.306Z,57.87
2018-05-18T04:36:34.594Z,58.30
2018-05-18T04:39:02.894Z,61.30
2018-05-18T04:41:30.413Z,53.30
2018-05-18T04:43:58.689Z,54.10
2018-05-18T04:46:27.000Z,51.17
2018-05-18T04:48:54.847Z,53.50
2018-05-18T04:51:22.342Z,54.40
2018-05-18T04:53:49.969Z,57.87
2018-05-18T04:56:17.461Z,56.60
2018-05-18T04:58:45.042Z,54.53
2018-05-18T05:01:12.511Z,47.70
2018-05-18T05:03:40.878Z,52.50
2018-05-18T05:06:08.471Z,56.93
2018-05-18T05:08:35.962Z,54.47
2018-05-18T05:11:03.468Z,57.00
2018-05-18T05:13:31.001Z,50.07
2018-05-18T05:15:58.501Z,50.67
2018-05-18T05:18:25.994Z,49.40
2018-05-18T05:20:53.497Z,48.57
2018-05-18T05:23:21.771Z,45.33
2018-05-18T05:25:50.031Z,43.33
2018-05-18T05:28:17.534Z,47.80
2018-05-18T05:30:45.066Z,41.97
2018-05-18T05:33:13.446Z,45.10
2018-05-18T05:35:41.727Z,40.20
2018-05-18T05:38:09.273Z,41.63
2018-05-18T05:40:37.538Z,46.30
2018-05-18T05:43:05.803Z,45.80
2018-05-18T05:45:34.120Z,43.30
2018-05-18T05:48:01.695Z,43.73
2018-05-18T05:50:29.226Z,42.20
2018-05-18T05:52:56.793Z,37.77
2018-05-18T05:55:24.289Z,44.60
2018-05-18T05:57:51.792Z,37.43
2018-05-18T06:00:19.296Z,39.83
2018-05-18T06:02:46.808Z,43.13
2018-05-18T06:05:14.325Z,40.03
2018-05-18T06:07:41.846Z,43.33
2018-05-18T06:10:09.360Z,41.07
2018-05-18T06:12:37.656Z,40.67
2018-05-18T06:15:05.159Z,41.90
2018-05-18T06:17:32.660Z,41.90
2018-05-18T06:20:00.201Z,37.67
2018-05-18T06:22:28.496Z,36.73
2018-05-18T06:24:56.010Z,38.30
2018-05-18T06:27:23.513Z,37.20
2018-05-18T06:29:51.062Z,36.13
2018-05-18T06:32:19.367Z,34.60
2018-05-18T06:34:46.906Z,37.93
2018-05-18T06:37:15.163Z,35.43
2018-05-18T06:39:43.426Z,36.03
2018-05-18T06:42:11.723Z,36.03
2018-05-18T06:44:39.228Z,37.07
2018-05-18T06:47:06.736Z,35.67
2018-05-18T06:49:34.231Z,37.90
2018-05-18T06:52:01.744Z,41.07
2018-05-18T06:54:29.296Z,35.77
2018-05-18T06:56:57.558Z,33.97
2018-05-18T06:59:25.818Z,33.50
2018-05-18T07:01:53.335Z,33.10
2018-05-18T07:04:20.837Z,34.53
2018-05-18T07:06:48.348Z,33.30
2018-05-18T07:09:15.854Z,32.07
2018-05-18T07:11:43.378Z,33.50
2018-05-18T07:14:10.876Z,33.47
2018-05-18T07:16:39.143Z,29.00
2018-05-18T07:19:07.430Z,30.97
2018-05-18T07:21:35.691Z,30.50
2018-05-18T07:24:03.961Z,34.23
2018-05-18T07:26:31.513Z,31.10
2018-05-18T07:28:59.019Z,30.23
2018-05-18T07:31:26.500Z,31.50
2018-05-18T07:33:54.139Z,28.23
2018-05-18T07:36:21.637Z,33.30
2018-05-18T07:38:49.148Z,30.23
2018-05-18T07:41:16.642Z,37.07
2018-05-18T07:43:44.136Z,29.67
2018-05-18T07:46:12.420Z,30.10
2018-05-18T07:48:39.974Z,25.83
2018-05-18T07:51:08.231Z,30.77
2018-05-18T07:53:36.551Z,30.80
2018-05-18T07:56:04.217Z,26.57
2018-05-18T07:58:31.780Z,30.10
2018-05-18T08:00:59.295Z,24.33
2018-05-18T08:03:27.562Z,27.93
2018-05-18T08:05:55.851Z,25.40
2018-05-18T08:08:23.364Z,23.00
2018-05-18T08:10:50.863Z,23.20
2018-05-18T08:13:18.382Z,25.30
2018-05-18T08:15:45.870Z,24.97
2018-05-18T08:18:14.266Z,25.50
2018-05-18T08:20:41.772Z,24.50
2018-05-18T08:23:09.304Z,29.37
2018-05-18T08:25:36.808Z,26.43
2018-05-18T08:28:05.076Z,24.73
2018-05-18T08:30:45.278Z,22.73
2018-05-18T08:33:12.817Z,22.07
2018-05-18T08:35:40.347Z,26.93
2018-05-18T08:38:08.658Z,24.43
2018-05-18T08:40:36.199Z,26.57
2018-05-18T08:43:03.720Z,23.53
2018-05-18T08:45:31.246Z,22.60
2018-05-18T08:47:58.769Z,25.07
2018-05-18T08:50:26.318Z,23.00
2018-05-18T08:52:54.624Z,24.30
2018-05-18T08:55:22.127Z,23.37
2018-05-18T08:57:49.750Z,25.30
2018-05-18T09:00:17.309Z,25.17
2018-05-18T09:02:44.815Z,25.83
2018-05-18T09:05:13.094Z,26.50
2018-05-18T09:07:41.357Z,23.60
2018-05-18T09:10:09.641Z,24.13
2018-05-18T09:12:37.910Z,24.30
2018-05-18T09:15:15.601Z,23.30
2018-05-18T09:17:44.461Z,22.70
2018-05-18T09:20:11.946Z,22.90
2018-05-18T09:22:40.228Z,19.50
2018-05-18T09:25:08.509Z,19.50
2018-05-18T09:27:36.068Z,19.17
2018-05-18T09:30:04.349Z,18.57
2018-05-18T09:32:31.921Z,19.43
2018-05-18T09:34:59.464Z,20.10
2018-05-18T09:37:26.973Z,22.77
2018-05-18T09:39:54.590Z,17.30
2018-05-18T09:42:22.043Z,18.37
2018-05-18T09:44:49.698Z,17.93
2018-05-18T09:47:17.262Z,20.33
2018-05-18T09:49:44.788Z,18.47
2018-05-18T09:52:13.078Z,18.23
2018-05-18T09:54:41.519Z,19.97
2018-05-18T09:57:08.980Z,19.00
2018-05-18T09:59:36.499Z,17.50
2018-05-18T10:02:04.016Z,15.13
2018-05-18T10:04:32.368Z,18.73
2018-05-18T10:07:00.017Z,15.83
2018-05-18T10:09:28.224Z,15.07
2018-05-18T10:11:56.521Z,17.20
2018-05-18T10:14:24.041Z,16.37
2018-05-18T10:16:51.708Z,16.00
2018-05-18T10:19:20.020Z,16.30
2018-05-18T10:21:47.516Z,14.23
2018-05-18T10:24:15.040Z,13.77
2018-05-18T10:26:42.627Z,16.70
2018-05-18T10:29:10.240Z,14.27
2018-05-18T10:31:37.734Z,14.70
2018-05-18T10:34:05.243Z,16.80
2018-05-18T10:36:33.529Z,19.07
2018-05-18T10:39:01.052Z,15.10
2018-05-18T10:41:28.657Z,15.40
2018-05-18T10:43:56.169Z,15.20
2018-05-18T10:46:23.749Z,16.40
2018-05-18T10:48:52.018Z,15.53
2018-05-18T10:51:20.276Z,15.43
2018-05-18T10:53:47.774Z,16.33
2018-05-18T10:56:15.308Z,13.47
2018-05-18T10:58:43.590Z,14.20
2018-05-18T11:01:11.162Z,13.13
2018-05-18T11:03:38.730Z,12.73
2018-05-18T11:06:06.279Z,15.27
2018-05-18T11:08:33.785Z,17.57
2018-05-18T11:11:01.322Z,14.20
2018-05-18T11:13:28.877Z,13.40
2018-05-18T11:15:56.420Z,14.27
2018-05-18T11:18:23.964Z,16.03
2018-05-18T11:20:51.470Z,14.27
2018-05-18T11:23:18.984Z,15.10
2018-05-18T11:25:46.501Z,15.73
2018-05-18T11:28:14.793Z,15.03
2018-05-18T11:30:43.161Z,13.67
2018-05-18T11:33:11.674Z,16.00
2018-05-18T11:35:39.090Z,11.80
2018-05-18T11:38:07.388Z,15.53
2018-05-18T11:40:34.896Z,13.10
2018-05-18T11:43:02.445Z,13.33
2018-05-18T11:45:29.951Z,11.83
2018-05-18T11:47:57.477Z,14.83
2018-05-18T11:50:24.966Z,15.67
2018-05-18T11:52:52.483Z,15.00
2018-05-18T11:55:20.084Z,15.60
2018-05-18T11:57:47.640Z,14.13
2018-05-18T12:00:15.163Z,15.03
2018-05-18T12:02:42.690Z,15.43
2018-05-18T12:05:10.320Z,15.00
2018-05-18T12:07:37.838Z,13.17
2018-05-18T12:10:06.884Z,15.53
2018-05-18T12:12:34.401Z,16.23
2018-05-18T12:15:02.674Z,15.13
2018-05-18T12:17:31.256Z,18.23
2018-05-18T12:19:59.539Z,14.73
2018-05-18T12:22:27.812Z,13.77
2018-05-18T12:24:56.092Z,13.87
2018-05-18T12:27:24.388Z,13.13
2018-05-18T12:29:51.934Z,15.00
2018-05-18T12:32:19.455Z,15.03
2018-05-18T12:34:46.974Z,15.10
2018-05-18T12:37:14.492Z,15.20
2018-05-18T12:39:42.765Z,13.07
2018-05-18T12:42:11.171Z,13.07
2018-05-18T12:44:38.736Z,12.73
2018-05-18T12:47:06.250Z,13.20
2018-05-18T12:49:34.534Z,12.87
2018-05-18T12:52:02.814Z,13.00
2018-05-18T12:54:30.384Z,16.57
2018-05-18T12:56:57.876Z,12.83
2018-05-18T12:59:25.550Z,13.80
2018-05-18T13:01:53.013Z,13.27
2018-05-18T13:04:20.534Z,14.50
2018-05-18T13:06:48.147Z,11.50
2018-05-18T13:09:16.420Z,16.53
2018-05-18T13:11:44.721Z,13.33
2018-05-18T13:14:12.275Z,12.53
2018-05-18T13:16:39.828Z,10.73
2018-05-18T13:19:07.335Z,11.90
2018-05-18T13:21:34.911Z,18.37
2018-05-18T13:24:02.406Z,12.50
2018-05-18T13:26:29.948Z,17.03
2018-05-18T13:28:58.201Z,15.80
2018-05-18T13:31:25.724Z,18.17
2018-05-18T13:33:53.262Z,13.47
2018-05-18T13:36:20.783Z,10.27
2018-05-18T13:38:49.374Z,14.83
2018-05-18T13:41:17.420Z,11.60
2018-05-18T13:43:44.923Z,11.73
2018-05-18T13:46:12.468Z,11.80
2018-05-18T13:48:39.995Z,11.17
2018-05-18T13:51:07.498Z,10.67
2018-05-18T13:53:35.024Z,10.57
2018-05-18T13:56:03.301Z,12.60
2018-05-18T13:58:31.587Z,12.33
2018-05-18T14:00:59.105Z,10.53
2018-05-18T14:03:26.731Z,13.93
2018-05-18T14:05:54.230Z,9.23
2018-05-18T14:08:21.743Z,11.23
2018-05-18T14:10:49.248Z,11.13
2018-05-18T14:13:17.521Z,13.87
2018-05-18T14:15:45.812Z,11.27
2018-05-18T14:18:14.104Z,10.93
2018-05-18T14:20:41.987Z,10.47
2018-05-18T14:23:09.521Z,10.60
2018-05-18T14:25:37.042Z,11.60
2018-05-18T14:28:04.655Z,12.17
2018-05-18T14:30:32.169Z,10.13
2018-05-18T14:33:00.496Z,11.57
2018-05-18T14:35:28.030Z,14.47
2018-05-18T14:37:55.639Z,13.93
2018-05-18T14:40:23.144Z,11.43
2018-05-18T14:42:50.685Z,13.27
2018-05-18T14:45:18.955Z,14.00
2018-05-18T14:47:47.247Z,11.70
2018-05-18T14:50:14.772Z,10.27
2018-05-18T14:52:42.306Z,14.77
2018-05-18T14:55:09.817Z,12.63
2018-05-18T14:57:37.326Z,10.47
2018-05-18T15:00:04.823Z,13.37
2018-05-18T15:02:33.107Z,11.43
2018-05-18T15:05:00.598Z,13.20
2018-05-18T15:07:28.113Z,11.93
2018-05-18T15:09:55.694Z,14.10
2018-05-18T15:12:23.236Z,13.57
2018-05-18T15:14:50.802Z,11.93
2018-05-18T15:17:18.351Z,12.30
2018-05-18T15:19:46.028Z,11.30
2018-05-18T15:22:13.528Z,12.90
2018-05-18T15:24:41.039Z,10.87
2018-05-18T15:27:08.537Z,10.20
2018-05-18T15:29:36.895Z,10.97
2018-05-18T15:32:04.418Z,15.47
2018-05-18T15:34:31.966Z,10.37
2018-05-18T15:36:59.467Z,13.10
2018-05-18T15:39:26.962Z,13.53
2018-05-18T15:41:55.264Z,11.00
2018-05-18T15:44:22.759Z,11.20
2018-05-18T15:46:50.297Z,10.30
2018-05-18T15:49:17.869Z,12.43
2018-05-18T15:51:46.080Z,10.60
2018-05-18T15:54:14.341Z,9.70
2018-05-18T15:56:41.907Z,8.83
2018-05-18T15:59:09.495Z,10.30
2018-05-18T16:01:37.054Z,10.83
2018-05-18T16:04:04.586Z,10.20
2018-05-18T16:06:32.845Z,9.37
2018-05-18T16:09:00.353Z,9.90
2018-05-18T16:11:27.908Z,9.43
2018-05-18T16:13:55.429Z,12.57
2018-05-18T16:16:23.693Z,9.80
2018-05-18T16:18:51.203Z,12.83
2018-05-18T16:21:18.716Z,14.93
2018-05-18T16:23:47.002Z,11.00
2018-05-18T16:26:15.259Z,13.27
2018-05-18T16:28:42.759Z,14.17
2018-05-18T16:31:10.297Z,13.00
2018-05-18T16:33:38.575Z,15.00
2018-05-18T16:36:06.162Z,11.77
2018-05-18T16:38:33.645Z,10.90
2018-05-18T16:41:01.590Z,14.47
2018-05-18T16:43:29.111Z,10.33
2018-05-18T16:45:56.666Z,10.33
2018-05-18T16:48:24.945Z,11.97
2018-05-18T16:50:52.462Z,13.37
2018-05-18T16:53:19.979Z,14.50
2018-05-18T16:55:47.622Z,11.77
2018-05-18T16:58:15.288Z,10.03
2018-05-18T17:00:42.804Z,8.00
2018-05-18T17:03:10.322Z,7.83
2018-05-18T17:05:37.837Z,9.57
2018-05-18T17:08:06.218Z,8.60
2018-05-18T17:10:34.505Z,8.90
2018-05-18T17:13:01.993Z,8.90
2018-05-18T17:15:29.524Z,9.27
2018-05-18T17:17:57.034Z,8.70
2018-05-18T17:20:24.622Z,8.53
2018-05-18T17:22:52.893Z,9.37
2018-05-18T17:25:21.170Z,8.57
2018-05-18T17:27:49.441Z,8.17
2018-05-18T17:30:17.717Z,8.33
2018-05-18T17:32:45.980Z,10.20
2018-05-18T17:35:14.298Z,10.20
2018-05-18T17:37:41.813Z,10.20
2018-05-18T17:40:10.062Z,7.93
2018-05-18T17:42:37.667Z,9.77
2018-05-18T17:45:05.104Z,8.13
2018-05-18T17:47:33.383Z,8.93
2018-05-18T17:50:01.648Z,9.07
2018-05-18T17:52:29.913Z,10.80
2018-05-18T17:54:57.428Z,8.70
2018-05-18T17:57:24.954Z,8.03
2018-05-18T17:59:53.251Z,10.20
2018-05-18T18:02:20.811Z,8.67
2018-05-18T18:04:48.328Z,8.43
2018-05-18T18:07:16.592Z,7.77
2018-05-18T18:09:44.928Z,7.80
2018-05-18T18:12:12.448Z,9.60
2018-05-18T18:14:40.806Z,8.13
2018-05-18T18:17:08.294Z,12.73
2018-05-18T18:19:35.794Z,7.97
2018-05-18T18:22:03.299Z,10.23
2018-05-18T18:24:30.860Z,9.97
2018-05-18T18:26:58.360Z,8.70
2018-05-18T18:29:25.863Z,7.70
2018-05-18T18:31:54.243Z,8.50
2018-05-18T18:34:21.815Z,8.73
2018-05-18T18:36:49.318Z,8.63
2018-05-18T18:39:16.826Z,8.60
2018-05-18T18:41:44.332Z,8.23
2018-05-18T18:44:11.829Z,8.80
2018-05-18T18:46:40.131Z,8.93
2018-05-18T18:49:07.652Z,12.57
2018-05-18T18:51:35.926Z,9.33
2018-05-18T18:54:04.234Z,9.63
2018-05-18T18:56:31.733Z,9.50
2018-05-18T18:58:59.332Z,10.17
2018-05-18T19:01:26.896Z,8.97
2018-05-18T19:03:54.414Z,8.80
2018-05-18T19:06:21.938Z,9.07
2018-05-18T19:08:49.479Z,13.80
2018-05-18T19:11:17.006Z,10.63
2018-05-18T19:13:45.298Z,10.07
2018-05-18T19:16:12.817Z,12.77
2018-05-18T19:18:40.369Z,11.37
2018-05-18T19:21:07.902Z,12.37
2018-05-18T19:23:35.439Z,11.40
2018-05-18T19:26:02.930Z,12.67
2018-05-18T19:28:30.448Z,12.37
2018-05-18T19:30:57.973Z,13.03
2018-05-18T19:33:26.264Z,13.57
2018-05-18T19:35:53.776Z,13.70
2018-05-18T19:38:21.317Z,13.03
2018-05-18T19:40:48.830Z,13.07
2018-05-18T19:43:17.104Z,13.73
2018-05-18T19:45:45.457Z,14.30
2018-05-18T19:48:13.079Z,12.83
2018-05-18T19:50:40.546Z,13.37
2018-05-18T19:53:08.073Z,12.70
2018-05-18T19:55:35.601Z,13.27
2018-05-18T19:58:03.888Z,13.97
2018-05-18T20:00:31.387Z,13.67
2018-05-18T20:02:58.912Z,13.47
2018-05-18T20:05:26.411Z,14.80
2018-05-18T20:07:53.949Z,14.10
2018-05-18T20:10:21.470Z,14.23
2018-05-18T20:12:49.760Z,13.93
2018-05-18T20:15:17.328Z,13.33
2018-05-18T20:17:44.887Z,14.87
2018-05-18T20:20:12.502Z,15.40
2018-05-18T20:22:39.994Z,14.80
2018-05-18T20:25:07.592Z,14.63
2018-05-18T20:27:35.060Z,15.20
2018-05-18T20:30:02.559Z,16.17
2018-05-18T20:32:30.090Z,14.77
2018-05-18T20:34:58.438Z,14.00
2018-05-18T20:37:25.955Z,14.97
2018-05-18T20:39:53.515Z,15.30
2018-05-18T20:42:21.021Z,15.77
2018-05-18T20:44:48.541Z,15.10
2018-05-18T20:47:16.050Z,13.67
2018-05-18T20:49:44.327Z,13.80
2018-05-18T20:52:12.753Z,14.93
2018-05-18T20:54:40.264Z,13.97
2018-05-18T20:57:08.544Z,14.40
2018-05-18T20:59:36.824Z,13.93
2018-05-18T21:02:05.110Z,14.50
2018-05-18T21:04:32.679Z,14.50
2018-05-18T21:07:00.921Z,13.70
2018-05-18T21:09:29.198Z,12.77
2018-05-18T21:11:57.531Z,12.90
2018-05-18T21:14:25.264Z,13.37
2018-05-18T21:16:52.760Z,13.80
2018-05-18T21:19:20.379Z,13.93
2018-05-18T21:21:47.881Z,14.03
2018-05-18T21:24:16.238Z,13.40
2018-05-18T21:26:43.787Z,13.80
2018-05-18T21:29:11.312Z,13.60
2018-05-18T21:31:38.832Z,13.37
2018-05-18T21:34:06.355Z,14.73
2018-05-18T21:36:33.870Z,13.57
2018-05-18T21:39:02.144Z,14.17
2018-05-18T21:41:30.448Z,16.03
2018-05-18T21:43:57.988Z,14.77
2018-05-18T21:46:25.514Z,13.70
2018-05-18T21:48:53.039Z,14.83
2018-05-18T21:51:20.538Z,13.60
2018-05-18T21:53:48.833Z,14.13
2018-05-18T21:56:16.343Z,13.80
2018-05-18T21:58:43.970Z,13.73
2018-05-18T22:01:12.231Z,13.90
2018-05-18T22:03:39.732Z,15.80
2018-05-18T22:06:07.274Z,13.43
2018-05-18T22:08:34.766Z,16.23
2018-05-18T22:11:02.362Z,19.93
2018-05-18T22:13:29.910Z,15.37
2018-05-18T22:15:57.394Z,17.83
2018-05-18T22:18:24.902Z,14.13
2018-05-18T22:20:53.180Z,15.83
2018-05-18T22:23:21.465Z,15.80
2018-05-18T22:25:48.997Z,17.00
2018-05-18T22:28:16.524Z,16.00
2018-05-18T22:30:44.044Z,16.27
2018-05-18T22:33:11.551Z,14.27
2018-05-18T22:35:39.077Z,15.00
2018-05-18T22:38:06.570Z,15.93
2018-05-18T22:40:34.098Z,19.67
2018-05-18T22:43:01.604Z,16.60
2018-05-18T22:45:29.888Z,17.20
2018-05-18T22:47:58.176Z,16.63
2018-05-18T22:50:26.517Z,15.10
2018-05-18T22:52:54.098Z,15.27
2018-05-18T22:55:22.368Z,14.50
2018-05-18T22:57:50.657Z,21.13
2018-05-18T23:00:27.083Z,15.67
2018-05-18T23:02:54.586Z,17.43
2018-05-18T23:05:22.116Z,16.03
2018-05-18T23:07:50.411Z,21.07
2018-05-18T23:10:17.976Z,17.60
2018-05-18T23:12:45.526Z,17.93
2018-05-18T23:15:13.990Z,15.50
2018-05-18T23:17:42.288Z,16.83
2018-05-18T23:20:09.785Z,14.70
2018-05-18T23:22:37.407Z,15.83
2018-05-18T23:25:04.926Z,15.93
2018-05-18T23:27:32.581Z,16.60
2018-05-18T23:30:00.097Z,16.23
2018-05-18T23:32:27.614Z,20.07
2018-05-18T23:34:55.898Z,20.33
2018-05-18T23:37:23.395Z,18.47
2018-05-18T23:39:50.915Z,16.20
2018-05-18T23:42:18.436Z,17.57
2018-05-18T23:44:46.154Z,15.60
2018-05-18T23:47:13.676Z,17.53
2018-05-18T23:49:41.972Z,15.03
2018-05-18T23:52:09.495Z,16.50
2018-05-18T23:54:37.031Z,17.27
2018-05-18T23:57:04.556Z,17.03
2018-05-18T23:59:32.088Z,20.70
